createdAt,value
2023-05-09T00:00:14.680Z,13.80
2023-05-09T00:01:14.694Z,13.60
2023-05-09T00:02:14.883Z,13.80
2023-05-09T00:03:14.729Z,13.40
2023-05-09T00:04:14.707Z,13.80
2023-05-09T00:05:15.001Z,13.60
2023-05-09T00:06:14.670Z,14.00
2023-05-09T00:07:14.689Z,13.30
2023-05-09T00:08:14.680Z,13.60
2023-05-09T00:09:14.685Z,13.50
2023-05-09T00:10:14.675Z,13.50
2023-05-09T00:11:14.677Z,14.00
2023-05-09T00:12:14.675Z,13.40
2023-05-09T00:13:14.750Z,13.70
2023-05-09T00:14:14.667Z,13.50
2023-05-09T00:15:14.903Z,14.10
2023-05-09T00:16:14.716Z,13.80
2023-05-09T00:17:14.662Z,13.50
2023-05-09T00:18:14.779Z,13.20
2023-05-09T00:19:14.664Z,13.80
2023-05-09T00:20:14.728Z,13.60
2023-05-09T00:21:14.662Z,13.90
2023-05-09T00:22:14.670Z,13.90
2023-05-09T00:23:14.658Z,13.80
2023-05-09T00:24:14.662Z,13.60
2023-05-09T00:25:14.949Z,13.60
2023-05-09T00:26:14.649Z,14.00
2023-05-09T00:27:14.662Z,13.80
2023-05-09T00:28:14.667Z,13.50
2023-05-09T00:29:14.676Z,13.70
2023-05-09T00:30:14.647Z,13.80
2023-05-09T00:31:14.655Z,13.90
2023-05-09T00:32:14.733Z,13.90
2023-05-09T00:33:14.648Z,13.90
2023-05-09T00:34:14.774Z,13.40
2023-05-09T00:35:15.031Z,14.00
2023-05-09T00:36:14.642Z,13.50
2023-05-09T00:37:14.647Z,13.60
2023-05-09T00:38:14.634Z,14.20
2023-05-09T00:39:14.637Z,14.00
2023-05-09T00:40:14.632Z,13.20
2023-05-09T00:41:14.649Z,13.70
2023-05-09T00:42:14.639Z,13.60
2023-05-09T00:43:14.648Z,13.50
2023-05-09T00:44:14.661Z,13.60
2023-05-09T00:45:14.835Z,13.80
2023-05-09T00:46:14.659Z,13.80
2023-05-09T00:47:14.650Z,13.40
2023-05-09T00:48:14.625Z,13.90
2023-05-09T00:49:14.627Z,13.70
2023-05-09T00:50:14.747Z,13.60
2023-05-09T00:51:14.637Z,13.60
2023-05-09T00:52:14.618Z,14.10
2023-05-09T00:53:14.618Z,14.20
2023-05-09T00:54:14.620Z,14.10
2023-05-09T00:55:14.756Z,14.30
2023-05-09T00:56:14.624Z,14.00
2023-05-09T00:57:14.628Z,13.80
2023-05-09T00:58:14.616Z,13.80
2023-05-09T00:59:16.282Z,13.80
2023-05-09T01:00:14.621Z,13.90
2023-05-09T01:01:14.636Z,13.70
2023-05-09T01:02:14.639Z,14.00
2023-05-09T01:03:14.705Z,13.70
2023-05-09T01:04:14.607Z,13.70
2023-05-09T01:05:15.123Z,14.00
2023-05-09T01:06:14.724Z,14.20
2023-05-09T01:07:14.603Z,13.90
2023-05-09T01:08:14.602Z,13.40
2023-05-09T01:09:14.598Z,13.70
2023-05-09T01:10:14.606Z,13.90
2023-05-09T01:11:14.603Z,14.10
2023-05-09T01:12:14.596Z,14.00
2023-05-09T01:13:14.648Z,14.20
2023-05-09T01:14:14.593Z,14.20
2023-05-09T01:15:14.831Z,13.80
2023-05-09T01:16:14.627Z,13.80
2023-05-09T01:17:14.593Z,13.80
2023-05-09T01:18:14.675Z,14.10
2023-05-09T01:19:14.592Z,14.40
2023-05-09T01:20:14.610Z,14.40
2023-05-09T01:21:14.582Z,14.40
2023-05-09T01:22:14.707Z,14.20
2023-05-09T01:23:14.579Z,14.00
2023-05-09T01:24:14.597Z,13.90
2023-05-09T01:25:14.818Z,14.00
2023-05-09T01:26:14.580Z,13.80
2023-05-09T01:27:14.570Z,13.90
2023-05-09T01:28:14.584Z,13.80
2023-05-09T01:29:14.568Z,14.10
2023-05-09T01:30:14.574Z,14.20
2023-05-09T01:31:14.579Z,13.70
2023-05-09T01:32:14.574Z,14.30
2023-05-09T01:33:14.564Z,14.30
2023-05-09T01:34:14.564Z,13.70
2023-05-09T01:35:14.894Z,13.90
2023-05-09T01:36:14.567Z,13.90
2023-05-09T01:37:14.563Z,14.10
2023-05-09T01:38:14.680Z,13.80
2023-05-09T01:39:14.585Z,13.40
2023-05-09T01:40:14.556Z,13.80
2023-05-09T01:41:14.558Z,13.80
2023-05-09T01:42:14.557Z,13.40
2023-05-09T01:43:14.552Z,14.00
2023-05-09T01:44:14.588Z,13.70
2023-05-09T01:45:14.766Z,13.70
2023-05-09T01:46:14.607Z,13.90
2023-05-09T01:47:14.541Z,13.60
2023-05-09T01:48:14.552Z,13.70
2023-05-09T01:49:14.538Z,13.30
2023-05-09T01:50:14.550Z,13.80
2023-05-09T01:51:14.541Z,14.10
2023-05-09T01:52:14.550Z,14.00
2023-05-09T01:53:14.533Z,14.00
2023-05-09T01:54:14.649Z,13.80
2023-05-09T01:55:14.732Z,13.90
2023-05-09T01:56:14.535Z,13.80
2023-05-09T01:57:14.541Z,14.00
2023-05-09T01:58:14.533Z,13.60
2023-05-09T01:59:14.532Z,13.50
2023-05-09T02:00:14.531Z,13.70
2023-05-09T02:01:14.587Z,13.80
2023-05-09T02:02:14.571Z,13.80
2023-05-09T02:03:14.593Z,13.60
2023-05-09T02:04:14.524Z,14.00
2023-05-09T02:05:14.725Z,13.80
2023-05-09T02:06:14.515Z,13.80
2023-05-09T02:07:14.531Z,14.00
2023-05-09T02:08:14.518Z,13.60
2023-05-09T02:09:14.519Z,13.20
2023-05-09T02:10:14.655Z,13.50
2023-05-09T02:11:14.509Z,13.50
2023-05-09T02:12:14.516Z,13.20
2023-05-09T02:13:14.571Z,13.70
2023-05-09T02:14:14.504Z,13.50
2023-05-09T02:15:14.874Z,13.10
2023-05-09T02:16:14.535Z,13.10
2023-05-09T02:17:14.506Z,13.30
2023-05-09T02:18:14.506Z,13.80
2023-05-09T02:19:14.492Z,13.70
2023-05-09T02:20:14.510Z,13.80
2023-05-09T02:21:14.632Z,13.20
2023-05-09T02:22:14.494Z,13.40
2023-05-09T02:23:14.490Z,13.40
2023-05-09T02:24:14.508Z,13.50
2023-05-09T02:25:14.682Z,13.60
2023-05-09T02:26:14.610Z,13.50
2023-05-09T02:27:14.488Z,13.90
2023-05-09T02:28:14.496Z,13.50
2023-05-09T02:29:14.486Z,13.60
2023-05-09T02:30:14.485Z,13.80
2023-05-09T02:31:14.477Z,13.30
2023-05-09T02:32:14.525Z,13.60
2023-05-09T02:33:14.518Z,13.80
2023-05-09T02:34:14.482Z,13.50
2023-05-09T02:35:14.661Z,13.80
2023-05-09T02:36:14.470Z,13.80
2023-05-09T02:37:14.469Z,13.50
2023-05-09T02:38:14.485Z,13.60
2023-05-09T02:39:14.464Z,13.30
2023-05-09T02:40:14.472Z,13.60
2023-05-09T02:41:14.487Z,13.70
2023-05-09T02:42:14.623Z,13.60
2023-05-09T02:43:14.458Z,13.50
2023-05-09T02:44:14.464Z,13.90
2023-05-09T02:45:14.617Z,13.70
2023-05-09T02:46:14.489Z,13.20
2023-05-09T02:47:14.468Z,13.70
2023-05-09T02:48:14.508Z,13.60
2023-05-09T02:49:26.726Z,13.00
2023-05-09T02:50:14.451Z,13.20
2023-05-09T02:51:14.449Z,12.80
2023-05-09T02:52:14.465Z,13.50
2023-05-09T02:53:14.446Z,13.20
2023-05-09T02:54:14.448Z,13.20
2023-05-09T02:55:14.633Z,13.40
2023-05-09T02:56:14.496Z,13.30
2023-05-09T02:57:14.445Z,13.30
2023-05-09T02:58:15.206Z,13.00
2023-05-09T02:59:14.437Z,13.00
2023-05-09T03:00:14.449Z,13.10
2023-05-09T03:01:14.475Z,12.70
2023-05-09T03:02:14.440Z,12.80
2023-05-09T03:03:14.558Z,12.60
2023-05-09T03:04:14.459Z,12.50
2023-05-09T03:05:14.633Z,13.10
2023-05-09T03:06:14.468Z,13.00
2023-05-09T03:07:14.428Z,12.90
2023-05-09T03:08:14.431Z,12.90
2023-05-09T03:09:14.419Z,12.80
2023-05-09T03:10:14.425Z,12.80
2023-05-09T03:11:14.423Z,12.60
2023-05-09T03:12:14.420Z,12.60
2023-05-09T03:13:14.435Z,12.60
2023-05-09T03:14:14.539Z,12.40
2023-05-09T03:15:14.563Z,12.90
2023-05-09T03:16:14.488Z,13.00
2023-05-09T03:17:14.415Z,13.00
2023-05-09T03:18:14.417Z,12.70
2023-05-09T03:19:14.405Z,12.60
2023-05-09T03:20:14.419Z,13.10
2023-05-09T03:21:14.406Z,13.40
2023-05-09T03:22:14.404Z,13.00
2023-05-09T03:23:14.408Z,13.50
2023-05-09T03:24:14.400Z,13.20
2023-05-09T03:25:14.663Z,13.40
2023-05-09T03:26:14.409Z,13.40
2023-05-09T03:27:14.391Z,13.00
2023-05-09T03:28:14.398Z,13.20
2023-05-09T03:29:14.397Z,13.50
2023-05-09T03:30:14.543Z,13.70
2023-05-09T03:31:14.425Z,13.50
2023-05-09T03:32:15.233Z,14.00
2023-05-09T03:33:14.385Z,13.10
2023-05-09T03:34:14.385Z,13.30
2023-05-09T03:35:14.534Z,12.90
2023-05-09T03:36:14.396Z,12.90
2023-05-09T03:37:14.391Z,13.00
2023-05-09T03:38:14.407Z,13.70
2023-05-09T03:39:14.377Z,12.70
2023-05-09T03:40:14.383Z,13.10
2023-05-09T03:41:14.372Z,12.90
2023-05-09T03:42:14.384Z,13.40
2023-05-09T03:43:14.372Z,13.10
2023-05-09T03:44:14.389Z,13.50
2023-05-09T03:45:14.578Z,12.90
2023-05-09T03:46:14.515Z,13.00
2023-05-09T03:47:14.361Z,11.30
2023-05-09T03:48:14.383Z,9.90
2023-05-09T03:49:14.360Z,13.00
2023-05-09T03:50:14.369Z,13.20
2023-05-09T03:51:14.358Z,13.30
2023-05-09T03:52:14.360Z,14.00
2023-05-09T03:53:14.366Z,13.70
2023-05-09T03:54:14.361Z,13.50
2023-05-09T03:55:14.497Z,13.10
2023-05-09T03:56:14.353Z,13.30
2023-05-09T03:57:14.351Z,13.70
2023-05-09T03:58:14.352Z,13.10
2023-05-09T03:59:14.345Z,13.00
2023-05-09T04:00:14.374Z,13.60
2023-05-09T04:01:14.335Z,13.40
2023-05-09T04:02:14.518Z,12.50
2023-05-09T04:03:14.448Z,12.40
2023-05-09T04:04:14.397Z,12.70
2023-05-09T04:05:14.550Z,12.40
2023-05-09T04:06:14.334Z,12.80
2023-05-09T04:07:14.344Z,12.70
2023-05-09T04:08:14.347Z,13.10
2023-05-09T04:09:14.328Z,13.10
2023-05-09T04:10:14.337Z,13.00
2023-05-09T04:11:14.326Z,12.80
2023-05-09T04:12:14.325Z,13.70
2023-05-09T04:13:14.348Z,13.20
2023-05-09T04:14:14.323Z,13.90
2023-05-09T04:15:14.520Z,14.50
2023-05-09T04:16:14.398Z,14.80
2023-05-09T04:17:14.310Z,14.70
2023-05-09T04:18:14.441Z,15.10
2023-05-09T04:19:14.358Z,15.00
2023-05-09T04:20:14.348Z,15.10
2023-05-09T04:21:14.309Z,15.20
2023-05-09T04:22:14.308Z,15.40
2023-05-09T04:23:14.309Z,14.00
2023-05-09T04:24:14.307Z,15.60
2023-05-09T04:25:14.543Z,15.20
2023-05-09T04:26:14.299Z,14.90
2023-05-09T04:27:14.290Z,14.60
2023-05-09T04:28:14.295Z,14.90
2023-05-09T04:29:14.307Z,14.90
2023-05-09T04:30:14.288Z,14.20
2023-05-09T04:31:14.343Z,14.10
2023-05-09T04:32:14.365Z,14.20
2023-05-09T04:33:14.288Z,14.30
2023-05-09T04:34:14.408Z,13.50
2023-05-09T04:35:14.687Z,14.20
2023-05-09T04:36:14.281Z,14.10
2023-05-09T04:37:14.288Z,14.10
2023-05-09T04:38:14.278Z,13.20
2023-05-09T04:39:14.274Z,13.20
2023-05-09T04:40:14.271Z,13.30
2023-05-09T04:41:14.279Z,14.20
2023-05-09T04:42:14.267Z,14.20
2023-05-09T04:43:14.267Z,14.40
2023-05-09T04:44:14.270Z,14.20
2023-05-09T04:45:14.480Z,14.30
2023-05-09T04:46:14.315Z,14.10
2023-05-09T04:47:14.265Z,14.30
2023-05-09T04:48:14.265Z,12.80
2023-05-09T04:49:14.250Z,14.40
2023-05-09T04:50:14.427Z,13.90
2023-05-09T04:51:14.250Z,14.10
2023-05-09T04:52:14.258Z,13.30
2023-05-09T04:53:14.243Z,13.30
2023-05-09T04:54:14.252Z,12.60
2023-05-09T04:55:14.529Z,12.90
2023-05-09T04:56:14.243Z,12.70
2023-05-09T04:57:18.563Z,12.70
2023-05-09T04:58:14.232Z,13.00
2023-05-09T04:59:14.233Z,13.20
2023-05-09T05:00:14.234Z,12.70
2023-05-09T05:01:14.275Z,12.50
2023-05-09T05:02:14.254Z,12.90
2023-05-09T05:03:14.230Z,12.80
2023-05-09T05:04:14.299Z,12.20
2023-05-09T05:05:14.244Z,12.60
2023-05-09T05:06:14.386Z,12.90
2023-05-09T05:07:14.221Z,12.40
2023-05-09T05:08:14.217Z,13.10
2023-05-09T05:09:14.220Z,12.50
2023-05-09T05:10:14.224Z,12.90
2023-05-09T05:11:14.211Z,12.90
2023-05-09T05:12:14.209Z,12.70
2023-05-09T05:13:14.244Z,12.30
2023-05-09T05:14:14.214Z,12.60
2023-05-09T05:15:14.453Z,12.60
2023-05-09T05:16:14.284Z,12.80
2023-05-09T05:17:14.209Z,12.10
2023-05-09T05:18:14.225Z,12.70
2023-05-09T05:19:14.211Z,12.20
2023-05-09T05:20:14.203Z,12.50
2023-05-09T05:21:14.200Z,12.80
2023-05-09T05:22:14.325Z,12.70
2023-05-09T05:23:14.198Z,12.40
2023-05-09T05:24:14.196Z,12.30
2023-05-09T05:25:14.430Z,12.50
2023-05-09T05:26:14.181Z,13.40
2023-05-09T05:27:14.193Z,12.70
2023-05-09T05:28:14.186Z,12.40
2023-05-09T05:29:14.186Z,12.70
2023-05-09T05:30:14.216Z,12.70
2023-05-09T05:31:14.202Z,13.10
2023-05-09T05:32:14.181Z,12.60
2023-05-09T05:33:14.180Z,12.80
2023-05-09T05:34:14.171Z,12.60
2023-05-09T05:35:14.378Z,12.80
2023-05-09T05:36:14.169Z,12.30
2023-05-09T05:37:14.178Z,12.50
2023-05-09T05:38:14.289Z,12.30
2023-05-09T05:39:14.220Z,13.00
2023-05-09T05:40:14.171Z,12.60
2023-05-09T05:41:14.165Z,13.30
2023-05-09T05:42:14.152Z,13.30
2023-05-09T05:43:14.161Z,13.40
2023-05-09T05:44:14.156Z,12.90
2023-05-09T05:45:14.298Z,13.10
2023-05-09T05:46:14.269Z,12.90
2023-05-09T05:47:14.162Z,12.80
2023-05-09T05:48:14.148Z,12.60
2023-05-09T05:49:14.150Z,13.00
2023-05-09T05:50:14.143Z,12.60
2023-05-09T05:51:14.147Z,13.30
2023-05-09T05:52:14.137Z,12.80
2023-05-09T05:53:14.160Z,12.90
2023-05-09T05:54:14.175Z,13.40
2023-05-09T05:55:14.382Z,13.30
2023-05-09T05:56:14.137Z,13.00
2023-05-09T05:57:14.144Z,13.30
2023-05-09T05:58:14.130Z,12.80
2023-05-09T05:59:14.140Z,13.40
2023-05-09T06:00:14.138Z,12.90
2023-05-09T06:01:14.137Z,13.20
2023-05-09T06:02:14.174Z,12.80
2023-05-09T06:03:14.310Z,12.40
2023-05-09T06:04:14.176Z,12.40
2023-05-09T06:05:14.396Z,12.90
2023-05-09T06:06:14.122Z,12.50
2023-05-09T06:07:14.131Z,12.80
2023-05-09T06:08:14.129Z,13.00
2023-05-09T06:09:14.125Z,12.60
2023-05-09T06:10:14.243Z,13.00
2023-05-09T06:11:14.128Z,12.80
2023-05-09T06:12:14.119Z,12.60
2023-05-09T06:13:14.150Z,13.10
2023-05-09T06:14:14.117Z,12.90
2023-05-09T06:15:14.228Z,12.70
2023-05-09T06:16:19.337Z,12.80
2023-05-09T06:17:14.172Z,13.00
2023-05-09T06:18:14.108Z,12.90
2023-05-09T06:19:14.108Z,13.10
2023-05-09T06:20:14.106Z,12.80
2023-05-09T06:21:14.118Z,12.80
2023-05-09T06:22:14.106Z,12.90
2023-05-09T06:23:14.112Z,12.80
2023-05-09T06:24:20.107Z,12.50
2023-05-09T06:25:14.372Z,12.70
2023-05-09T06:26:14.223Z,12.80
2023-05-09T06:27:14.114Z,12.30
2023-05-09T06:28:14.102Z,12.30
2023-05-09T06:29:14.107Z,12.10
2023-05-09T06:30:24.482Z,12.20
2023-05-09T06:31:14.157Z,12.70
2023-05-09T06:32:14.108Z,13.00
2023-05-09T06:33:14.100Z,12.40
2023-05-09T06:34:14.104Z,12.50
2023-05-09T06:35:14.330Z,13.90
2023-05-09T06:36:14.097Z,12.80
2023-05-09T06:37:14.099Z,12.50
2023-05-09T06:38:14.101Z,13.20
2023-05-09T06:39:14.099Z,13.10
2023-05-09T06:40:14.107Z,12.60
2023-05-09T06:41:14.126Z,12.80
2023-05-09T06:42:14.234Z,12.70
2023-05-09T06:43:14.106Z,12.60
2023-05-09T06:44:14.098Z,13.00
2023-05-09T06:45:14.313Z,13.10
2023-05-09T06:46:14.121Z,12.90
2023-05-09T06:47:14.095Z,12.30
2023-05-09T06:48:14.095Z,13.00
2023-05-09T06:49:14.105Z,12.80
2023-05-09T06:50:14.093Z,12.00
2023-05-09T06:51:14.099Z,12.40
2023-05-09T06:52:14.090Z,12.30
2023-05-09T06:53:14.097Z,12.00
2023-05-09T06:54:14.104Z,12.40
2023-05-09T06:55:14.263Z,12.50
2023-05-09T06:56:14.091Z,12.40
2023-05-09T06:57:14.094Z,12.40
2023-05-09T06:58:14.205Z,12.40
2023-05-09T06:59:14.085Z,11.90
2023-05-09T07:00:14.103Z,12.70
2023-05-09T07:01:14.143Z,12.30
2023-05-09T07:02:14.097Z,11.80
2023-05-09T07:03:14.130Z,12.40
2023-05-09T07:04:14.091Z,12.20
2023-05-09T07:05:14.368Z,12.00
2023-05-09T07:06:14.093Z,12.10
2023-05-09T07:07:14.095Z,12.20
2023-05-09T07:08:14.085Z,12.40
2023-05-09T07:09:14.092Z,11.10
2023-05-09T07:10:14.097Z,12.50
2023-05-09T07:11:14.106Z,12.50
2023-05-09T07:12:14.090Z,12.50
2023-05-09T07:13:14.151Z,11.50
2023-05-09T07:14:14.218Z,12.30
2023-05-09T07:15:18.552Z,11.50
2023-05-09T07:16:14.126Z,11.30
2023-05-09T07:17:23.031Z,11.80
2023-05-09T07:18:14.088Z,11.50
2023-05-09T07:19:14.100Z,11.80
2023-05-09T07:20:14.090Z,12.10
2023-05-09T07:21:14.087Z,12.50
2023-05-09T07:22:14.103Z,12.60
2023-05-09T07:23:14.092Z,12.50
2023-05-09T07:24:14.120Z,12.20
2023-05-09T07:25:14.234Z,12.40
2023-05-09T07:26:14.088Z,12.40
2023-05-09T07:27:14.138Z,12.70
2023-05-09T07:28:14.095Z,12.90
2023-05-09T07:29:14.103Z,12.50
2023-05-09T07:30:14.411Z,13.20
2023-05-09T07:31:14.126Z,12.60
2023-05-09T07:32:14.128Z,12.70
2023-05-09T07:33:14.131Z,12.50
2023-05-09T07:34:14.091Z,12.80
2023-05-09T07:35:14.270Z,12.90
2023-05-09T07:36:14.094Z,12.70
2023-05-09T07:37:15.425Z,12.60
2023-05-09T07:38:14.095Z,12.50
2023-05-09T07:39:14.104Z,12.40
2023-05-09T07:40:14.521Z,12.80
2023-05-09T07:41:14.124Z,13.10
2023-05-09T07:42:14.110Z,13.20
2023-05-09T07:43:14.097Z,12.90
2023-05-09T07:44:14.096Z,13.60
2023-05-09T07:45:14.326Z,12.60
2023-05-09T07:46:14.234Z,12.90
2023-05-09T07:47:14.109Z,12.30
2023-05-09T07:48:14.100Z,12.10
2023-05-09T07:49:14.115Z,12.00
2023-05-09T07:50:14.102Z,16.20
2023-05-09T07:51:14.109Z,13.70
2023-05-09T07:52:14.113Z,12.60
2023-05-09T07:53:14.158Z,11.90
2023-05-09T07:54:14.114Z,12.20
2023-05-09T07:55:14.355Z,11.70
2023-05-09T07:56:14.139Z,12.60
2023-05-09T07:57:14.136Z,12.70
2023-05-09T07:58:14.138Z,12.40
2023-05-09T07:59:14.126Z,12.50
2023-05-09T08:00:14.126Z,12.90
2023-05-09T08:01:14.143Z,13.40
2023-05-09T08:02:14.303Z,13.20
2023-05-09T08:03:14.290Z,12.90
2023-05-09T08:04:14.181Z,12.80
2023-05-09T08:05:14.446Z,12.40
2023-05-09T08:06:14.147Z,12.50
2023-05-09T08:07:14.164Z,12.90
2023-05-09T08:08:14.156Z,13.30
2023-05-09T08:09:14.173Z,12.70
2023-05-09T08:10:14.161Z,12.60
2023-05-09T08:11:14.167Z,12.40
2023-05-09T08:12:14.172Z,13.00
2023-05-09T08:13:14.203Z,13.20
2023-05-09T08:14:15.614Z,12.80
2023-05-09T08:15:14.405Z,12.10
2023-05-09T08:16:14.268Z,12.30
2023-05-09T08:17:14.197Z,12.10
2023-05-09T08:18:14.348Z,12.70
2023-05-09T08:19:14.209Z,12.50
2023-05-09T08:20:14.213Z,12.50
2023-05-09T08:21:14.254Z,12.40
2023-05-09T08:22:14.221Z,12.10
2023-05-09T08:23:14.247Z,12.20
2023-05-09T08:24:14.240Z,11.80
2023-05-09T08:25:17.064Z,11.90
2023-05-09T08:26:14.258Z,11.70
2023-05-09T08:27:14.270Z,11.90
2023-05-09T08:28:14.263Z,11.70
2023-05-09T08:29:14.276Z,11.90
2023-05-09T08:30:14.330Z,12.20
2023-05-09T08:31:14.344Z,12.30
2023-05-09T08:32:14.325Z,12.40
2023-05-09T08:33:14.365Z,12.20
2023-05-09T08:34:14.435Z,12.50
2023-05-09T08:35:14.809Z,11.90
2023-05-09T08:36:14.333Z,12.00
2023-05-09T08:37:15.249Z,11.60
2023-05-09T08:38:14.344Z,12.10
2023-05-09T08:39:14.354Z,11.70
2023-05-09T08:40:14.536Z,11.80
2023-05-09T08:41:14.377Z,11.50
2023-05-09T08:42:14.382Z,12.10
2023-05-09T08:43:14.400Z,11.80
2023-05-09T08:44:14.403Z,12.10
2023-05-09T08:45:14.420Z,12.50
2023-05-09T08:46:14.532Z,12.20
2023-05-09T08:47:14.433Z,12.10
2023-05-09T08:48:14.445Z,12.40
2023-05-09T08:49:14.454Z,12.30
2023-05-09T08:50:14.873Z,12.00
2023-05-09T08:51:14.477Z,12.20
2023-05-09T08:52:14.487Z,12.40
2023-05-09T08:53:14.494Z,12.40
2023-05-09T08:54:14.509Z,12.20
2023-05-09T08:55:14.520Z,12.00
2023-05-09T08:56:14.539Z,11.70
2023-05-09T08:57:14.557Z,12.00
2023-05-09T08:58:14.548Z,11.80
2023-05-09T08:59:14.563Z,12.00
2023-05-09T09:00:15.981Z,12.00
2023-05-09T09:01:14.601Z,11.40
2023-05-09T09:02:14.720Z,11.80
2023-05-09T09:03:14.670Z,12.00
2023-05-09T09:04:14.798Z,11.80
2023-05-09T09:05:28.633Z,12.00
2023-05-09T09:06:14.761Z,11.90
2023-05-09T09:07:14.665Z,11.60
2023-05-09T09:08:14.672Z,11.90
2023-05-09T09:09:14.695Z,11.70
2023-05-09T09:10:15.078Z,11.60
2023-05-09T09:11:14.718Z,12.00
2023-05-09T09:12:14.729Z,11.70
2023-05-09T09:13:14.861Z,11.50
2023-05-09T09:14:14.758Z,11.80
2023-05-09T09:15:14.780Z,11.70
2023-05-09T09:16:14.810Z,11.90
2023-05-09T09:17:14.798Z,11.70
2023-05-09T09:18:14.816Z,11.60
2023-05-09T09:19:14.827Z,11.50
2023-05-09T09:20:15.011Z,12.20
2023-05-09T09:21:14.855Z,11.90
2023-05-09T09:22:15.011Z,11.80
2023-05-09T09:23:14.883Z,11.60
2023-05-09T09:24:14.906Z,11.40
2023-05-09T09:25:14.939Z,11.60
2023-05-09T09:26:14.931Z,11.90
2023-05-09T09:27:14.948Z,11.90
2023-05-09T09:28:20.021Z,12.00
2023-05-09T09:29:14.983Z,11.60
2023-05-09T09:30:15.351Z,11.70
2023-05-09T09:31:17.130Z,12.20
2023-05-09T09:32:15.073Z,11.80
2023-05-09T09:33:15.073Z,11.80
2023-05-09T09:34:15.066Z,11.90
2023-05-09T09:35:15.063Z,12.00
2023-05-09T09:36:15.080Z,11.90
2023-05-09T09:37:15.106Z,11.10
2023-05-09T09:38:15.235Z,12.10
2023-05-09T09:39:15.128Z,11.50
2023-05-09T09:40:15.475Z,11.70
2023-05-09T09:41:15.169Z,11.40
2023-05-09T09:42:15.178Z,11.70
2023-05-09T09:43:15.190Z,11.10
2023-05-09T09:44:15.207Z,11.40
2023-05-09T09:45:15.240Z,11.40
2023-05-09T09:46:15.263Z,11.10
2023-05-09T09:47:15.254Z,11.00
2023-05-09T09:48:15.284Z,11.60
2023-05-09T09:49:15.289Z,11.40
2023-05-09T09:50:15.522Z,10.90
2023-05-09T09:51:15.339Z,11.10
2023-05-09T09:52:15.351Z,11.70
2023-05-09T09:53:15.364Z,11.80
2023-05-09T09:54:15.502Z,11.70
2023-05-09T09:55:15.399Z,12.10
2023-05-09T09:56:15.416Z,11.50
2023-05-09T09:57:15.457Z,11.00
2023-05-09T09:58:15.453Z,11.00
2023-05-09T09:59:15.474Z,10.80
2023-05-09T10:00:15.672Z,11.10
2023-05-09T10:01:15.556Z,10.90
2023-05-09T10:02:15.522Z,11.20
2023-05-09T10:03:15.694Z,11.00
2023-05-09T10:04:15.606Z,11.10
2023-05-09T10:05:15.574Z,11.20
2023-05-09T10:06:15.597Z,11.10
2023-05-09T10:07:15.624Z,10.80
2023-05-09T10:08:15.648Z,11.00
2023-05-09T10:09:15.647Z,11.00
2023-05-09T10:10:16.298Z,11.00
2023-05-09T10:11:15.684Z,11.00
2023-05-09T10:12:15.708Z,11.50
2023-05-09T10:13:15.791Z,11.20
2023-05-09T10:14:15.740Z,10.70
2023-05-09T10:15:15.764Z,11.50
2023-05-09T10:16:16.104Z,11.00
2023-05-09T10:17:15.931Z,10.90
2023-05-09T10:18:15.892Z,10.80
2023-05-09T10:19:15.834Z,11.10
2023-05-09T10:20:16.088Z,11.10
2023-05-09T10:21:15.900Z,11.90
2023-05-09T10:22:15.895Z,11.30
2023-05-09T10:23:15.919Z,11.50
2023-05-09T10:24:15.934Z,11.60
2023-05-09T10:25:16.160Z,12.40
2023-05-09T10:26:16.169Z,11.80
2023-05-09T10:27:16.006Z,11.30
2023-05-09T10:28:16.009Z,11.90
2023-05-09T10:29:16.027Z,11.80
2023-05-09T10:30:16.057Z,11.20
2023-05-09T10:31:16.084Z,10.90
2023-05-09T10:32:16.090Z,12.00
2023-05-09T10:33:16.110Z,12.10
2023-05-09T10:34:16.136Z,11.90
2023-05-09T10:35:16.474Z,12.40
2023-05-09T10:36:16.165Z,11.70
2023-05-09T10:37:16.183Z,11.60
2023-05-09T10:38:16.208Z,12.20
2023-05-09T10:39:16.222Z,11.90
2023-05-09T10:40:16.248Z,10.90
2023-05-09T10:41:16.264Z,12.40
2023-05-09T10:42:16.399Z,11.60
2023-05-09T10:43:16.308Z,11.30
2023-05-09T10:44:16.331Z,11.80
2023-05-09T10:45:16.585Z,11.90
2023-05-09T10:46:16.515Z,10.90
2023-05-09T10:47:16.383Z,10.60
2023-05-09T10:48:16.405Z,11.00
2023-05-09T10:49:16.427Z,11.00
2023-05-09T10:50:16.465Z,10.90
2023-05-09T10:51:16.525Z,11.00
2023-05-09T10:52:16.484Z,10.60
2023-05-09T10:53:16.512Z,10.90
2023-05-09T10:54:16.569Z,11.30
2023-05-09T10:55:16.852Z,10.60
2023-05-09T10:56:16.570Z,10.80
2023-05-09T10:57:16.596Z,11.40
2023-05-09T10:58:16.734Z,10.40
2023-05-09T10:59:16.634Z,10.40
2023-05-09T11:00:16.696Z,10.70
2023-05-09T11:01:16.731Z,11.00
2023-05-09T11:02:16.694Z,11.10
2023-05-09T11:03:16.770Z,10.80
2023-05-09T11:04:16.753Z,11.10
2023-05-09T11:05:16.895Z,10.70
2023-05-09T11:06:16.793Z,10.70
2023-05-09T11:07:16.813Z,11.30
2023-05-09T11:08:16.831Z,11.40
2023-05-09T11:09:16.853Z,11.00
2023-05-09T11:10:16.990Z,11.00
2023-05-09T11:11:16.898Z,11.10
2023-05-09T11:12:16.931Z,11.20
2023-05-09T11:13:17.005Z,10.90
2023-05-09T11:14:17.093Z,11.40
2023-05-09T11:15:17.064Z,11.10
2023-05-09T11:16:17.061Z,10.70
2023-05-09T11:17:17.028Z,10.90
2023-05-09T11:18:17.721Z,10.90
2023-05-09T11:19:17.080Z,11.20
2023-05-09T11:20:17.113Z,10.70
2023-05-09T11:21:17.115Z,10.80
2023-05-09T11:22:17.147Z,10.20
2023-05-09T11:23:17.187Z,10.60
2023-05-09T11:24:17.187Z,10.80
2023-05-09T11:25:17.485Z,10.60
2023-05-09T11:26:17.232Z,10.80
2023-05-09T11:27:17.253Z,10.80
2023-05-09T11:28:17.273Z,10.70
2023-05-09T11:29:17.295Z,10.50
2023-05-09T11:30:17.597Z,10.40
2023-05-09T11:31:17.355Z,10.80
2023-05-09T11:32:17.396Z,10.80
2023-05-09T11:33:17.391Z,10.90
2023-05-09T11:34:17.409Z,11.00
2023-05-09T11:35:17.784Z,10.90
2023-05-09T11:36:17.492Z,11.20
2023-05-09T11:37:17.473Z,11.50
2023-05-09T11:38:17.499Z,11.10
2023-05-09T11:39:17.516Z,11.10
2023-05-09T11:40:17.549Z,10.70
2023-05-09T11:41:17.577Z,10.80
2023-05-09T11:42:17.586Z,10.90
2023-05-09T11:43:17.613Z,11.70
2023-05-09T11:44:17.630Z,10.80
2023-05-09T11:45:17.866Z,11.00
2023-05-09T11:46:17.826Z,10.80
2023-05-09T11:47:17.691Z,10.80
2023-05-09T11:48:17.731Z,10.60
2023-05-09T11:49:17.758Z,10.70
2023-05-09T11:50:17.761Z,10.60
2023-05-09T11:51:17.786Z,11.20
2023-05-09T11:52:17.813Z,11.00
2023-05-09T11:53:17.831Z,11.00
2023-05-09T11:54:17.855Z,11.20
2023-05-09T11:55:18.213Z,11.20
2023-05-09T11:56:17.899Z,11.20
2023-05-09T11:57:17.929Z,11.20
2023-05-09T11:58:17.948Z,10.90
2023-05-09T11:59:17.964Z,11.00
2023-05-09T12:00:17.980Z,11.10
2023-05-09T12:01:18.007Z,11.10
2023-05-09T12:02:18.197Z,11.30
2023-05-09T12:03:18.172Z,11.00
2023-05-09T12:04:18.102Z,11.40
2023-05-09T12:05:18.124Z,11.30
2023-05-09T12:06:18.114Z,11.40
2023-05-09T12:07:18.132Z,11.10
2023-05-09T12:08:18.158Z,11.00
2023-05-09T12:09:18.175Z,11.50
2023-05-09T12:10:18.199Z,10.70
2023-05-09T12:11:18.234Z,11.10
2023-05-09T12:12:18.240Z,11.40
2023-05-09T12:13:18.291Z,11.40
2023-05-09T12:14:18.284Z,10.70
2023-05-09T12:15:19.258Z,10.90
2023-05-09T12:16:18.383Z,11.50
2023-05-09T12:17:18.349Z,11.70
2023-05-09T12:18:18.499Z,11.60
2023-05-09T12:19:18.382Z,11.40
2023-05-09T12:20:18.419Z,11.10
2023-05-09T12:21:18.492Z,11.60
2023-05-09T12:22:18.465Z,11.00
2023-05-09T12:23:18.476Z,11.50
2023-05-09T12:24:18.493Z,10.90
2023-05-09T12:25:18.511Z,10.70
2023-05-09T12:26:18.538Z,10.90
2023-05-09T12:27:18.565Z,11.00
2023-05-09T12:28:18.596Z,11.30
2023-05-09T12:29:18.603Z,11.40
2023-05-09T12:30:18.629Z,11.10
2023-05-09T12:31:18.718Z,10.80
2023-05-09T12:32:18.663Z,11.10
2023-05-09T12:33:18.679Z,12.40
2023-05-09T12:34:19.084Z,11.50
2023-05-09T12:35:18.718Z,11.50
2023-05-09T12:36:18.750Z,12.00
2023-05-09T12:37:18.758Z,11.60
2023-05-09T12:38:18.776Z,11.40
2023-05-09T12:39:18.799Z,11.00
2023-05-09T12:40:18.820Z,10.80
2023-05-09T12:41:35.014Z,11.20
2023-05-09T12:42:18.858Z,10.50
2023-05-09T12:43:18.887Z,10.60
2023-05-09T12:44:18.922Z,10.90
2023-05-09T12:45:19.099Z,10.50
2023-05-09T12:46:19.028Z,11.10
2023-05-09T12:47:19.046Z,10.70
2023-05-09T12:48:18.981Z,10.80
2023-05-09T12:49:19.009Z,10.70
2023-05-09T12:50:19.137Z,10.90
2023-05-09T12:51:19.049Z,10.90
2023-05-09T12:52:19.055Z,10.80